createdAt,value
2023-12-09T00:01:45.237Z,78.17
2023-12-09T00:04:13.339Z,78.18
2023-12-09T00:06:49.645Z,78.16
2023-12-09T00:09:21.187Z,78.31
2023-12-09T00:11:49.395Z,78.43
2023-12-09T00:14:17.494Z,78.39
2023-12-09T00:16:46.705Z,78.39
2023-12-09T00:19:15.033Z,78.34
2023-12-09T00:21:43.325Z,78.31
2023-12-09T00:24:11.589Z,78.41
2023-12-09T00:26:39.825Z,78.34
2023-12-09T00:29:08.282Z,78.28
2023-12-09T00:31:36.202Z,78.29
2023-12-09T00:34:04.339Z,78.24
2023-12-09T00:36:32.808Z,78.18
2023-12-09T00:39:00.720Z,78.17
2023-12-09T00:41:29.166Z,78.28
2023-12-09T00:43:57.207Z,78.21
2023-12-09T00:46:25.539Z,78.17
2023-12-09T00:48:53.903Z,78.12
2023-12-09T00:51:22.142Z,78.25
2023-12-09T00:53:50.107Z,78.36
2023-12-09T00:56:33.197Z,78.25
2023-12-09T00:59:04.237Z,78.15
2023-12-09T01:01:34.688Z,78.27
2023-12-09T01:04:03.116Z,78.30
2023-12-09T01:06:31.409Z,78.27
2023-12-09T01:08:59.548Z,78.04
2023-12-09T01:11:28.661Z,78.06
2023-12-09T01:13:56.710Z,78.20
2023-12-09T01:16:24.966Z,78.17
2023-12-09T01:18:53.432Z,78.07
2023-12-09T01:21:21.723Z,78.14
2023-12-09T01:23:50.059Z,78.27
2023-12-09T01:26:18.071Z,78.41
2023-12-09T01:28:46.096Z,78.44
2023-12-09T01:31:14.081Z,78.43
2023-12-09T01:33:42.788Z,78.79
2023-12-09T01:36:11.070Z,79.04
2023-12-09T01:38:38.992Z,79.11
2023-12-09T01:41:07.502Z,79.33
2023-12-09T01:43:35.526Z,79.35
2023-12-09T01:46:11.157Z,79.40
2023-12-09T01:48:39.780Z,79.52
2023-12-09T01:51:08.908Z,79.69
2023-12-09T01:53:37.444Z,79.79
2023-12-09T01:56:10.348Z,79.87
2023-12-09T01:58:38.998Z,79.88
2023-12-09T02:01:07.819Z,79.89
2023-12-09T02:03:36.329Z,80.10
2023-12-09T02:06:04.618Z,80.07
2023-12-09T02:08:33.600Z,80.20
2023-12-09T02:11:13.492Z,80.32
2023-12-09T02:14:08.937Z,80.26
2023-12-09T02:16:49.839Z,80.13
2023-12-09T02:19:19.387Z,80.16
2023-12-09T02:21:59.426Z,80.41
2023-12-09T02:24:27.937Z,80.48
2023-12-09T02:27:08.520Z,80.61
2023-12-09T02:29:52.724Z,80.37
2023-12-09T02:32:25.744Z,80.38
2023-12-09T02:34:56.624Z,80.49
2023-12-09T02:37:27.926Z,80.53
2023-12-09T02:39:59.130Z,80.47
2023-12-09T02:42:27.849Z,80.47
2023-12-09T02:44:57.531Z,80.37
2023-12-09T02:47:26.627Z,80.40
2023-12-09T02:49:55.538Z,80.72
2023-12-09T02:52:24.002Z,80.69
2023-12-09T02:54:51.943Z,80.77
2023-12-09T02:57:20.531Z,80.85
2023-12-09T02:59:48.644Z,80.96
2023-12-09T03:02:16.668Z,80.76
2023-12-09T03:04:45.854Z,80.97
2023-12-09T03:07:13.879Z,80.92
2023-12-09T03:09:41.816Z,80.83
2023-12-09T03:12:10.275Z,80.71
2023-12-09T03:14:38.353Z,80.53
2023-12-09T03:17:06.544Z,80.63
2023-12-09T03:19:35.168Z,80.47
2023-12-09T03:22:04.257Z,80.45
2023-12-09T03:24:32.383Z,80.51
2023-12-09T03:27:00.517Z,80.57
2023-12-09T03:29:28.688Z,80.45
2023-12-09T03:31:56.646Z,80.44
2023-12-09T03:34:24.560Z,80.47
2023-12-09T03:36:53.037Z,80.36
2023-12-09T03:39:21.304Z,80.45
2023-12-09T03:41:49.333Z,80.36
2023-12-09T03:44:17.511Z,80.35
2023-12-09T03:46:45.486Z,80.36
2023-12-09T03:49:13.831Z,80.51
2023-12-09T03:51:41.954Z,80.48
2023-12-09T03:54:10.073Z,80.45
2023-12-09T03:56:38.375Z,80.64
2023-12-09T03:59:06.448Z,80.71
2023-12-09T04:01:34.432Z,80.85
2023-12-09T04:04:02.730Z,80.94
2023-12-09T04:06:30.753Z,80.78
2023-12-09T04:08:58.675Z,80.71
2023-12-09T04:11:26.683Z,80.71
2023-12-09T04:13:54.567Z,80.75
2023-12-09T04:16:22.576Z,80.77
2023-12-09T04:18:51.954Z,80.59
2023-12-09T04:21:20.132Z,80.60
2023-12-09T04:23:48.895Z,80.71
2023-12-09T04:26:16.833Z,80.97
2023-12-09T04:28:44.673Z,81.05
2023-12-09T04:31:12.774Z,81.11
2023-12-09T04:33:40.731Z,81.12
2023-12-09T04:36:09.191Z,80.97
2023-12-09T04:38:37.499Z,81.08
2023-12-09T04:41:05.556Z,81.10
2023-12-09T04:43:33.811Z,80.96
2023-12-09T04:46:02.135Z,80.76
2023-12-09T04:48:30.172Z,80.69
2023-12-09T04:50:58.434Z,80.54
2023-12-09T04:53:26.780Z,80.40
2023-12-09T04:55:54.749Z,80.47
2023-12-09T04:58:22.722Z,80.51
2023-12-09T05:00:51.001Z,80.33
2023-12-09T05:03:19.124Z,80.59
2023-12-09T05:05:47.841Z,80.68
2023-12-09T05:08:15.981Z,80.66
2023-12-09T05:10:43.864Z,80.68
2023-12-09T05:13:12.273Z,80.52
2023-12-09T05:15:40.325Z,80.55
2023-12-09T05:18:08.645Z,80.56
2023-12-09T05:20:36.749Z,80.53
2023-12-09T05:23:05.968Z,80.46
2023-12-09T05:25:35.191Z,80.36
2023-12-09T05:28:04.134Z,80.32
2023-12-09T05:30:32.529Z,80.18
2023-12-09T05:33:01.023Z,80.29
2023-12-09T05:35:29.191Z,80.18
2023-12-09T05:37:57.689Z,80.12
2023-12-09T05:40:25.729Z,80.08
2023-12-09T05:42:53.698Z,80.00
2023-12-09T05:45:21.908Z,80.00
2023-12-09T05:47:50.211Z,79.93
2023-12-09T05:50:18.257Z,79.81
2023-12-09T05:52:47.165Z,79.91
2023-12-09T05:55:18.365Z,79.79
2023-12-09T05:57:46.652Z,79.92
2023-12-09T06:00:15.125Z,80.08
2023-12-09T06:02:43.137Z,80.11
2023-12-09T06:05:11.713Z,80.16
2023-12-09T06:07:39.899Z,79.98
2023-12-09T06:10:08.280Z,79.95
2023-12-09T06:12:36.720Z,80.09
2023-12-09T06:15:06.937Z,80.00
2023-12-09T06:17:35.281Z,79.94
2023-12-09T06:20:03.811Z,80.06
2023-12-09T06:22:32.278Z,80.21
2023-12-09T06:25:00.296Z,80.06
2023-12-09T06:27:29.285Z,80.18
2023-12-09T06:29:57.518Z,80.30
2023-12-09T06:32:25.920Z,80.03
2023-12-09T06:34:54.292Z,80.19
2023-12-09T06:37:22.258Z,80.09
2023-12-09T06:39:50.478Z,79.87
2023-12-09T06:42:18.628Z,79.85
2023-12-09T06:44:47.311Z,79.64
2023-12-09T06:47:15.529Z,79.64
2023-12-09T06:49:43.763Z,79.57
2023-12-09T06:52:11.989Z,79.40
2023-12-09T06:54:40.490Z,79.30
2023-12-09T06:57:08.793Z,79.26
2023-12-09T06:59:36.889Z,79.36
2023-12-09T07:02:04.989Z,79.49
2023-12-09T07:04:37.580Z,79.56
2023-12-09T07:07:09.879Z,79.67
2023-12-09T07:09:39.922Z,79.62
2023-12-09T07:12:08.450Z,79.79
2023-12-09T07:14:36.412Z,79.57
2023-12-09T07:17:04.654Z,79.51
2023-12-09T07:19:33.598Z,79.41
2023-12-09T07:22:04.501Z,79.51
2023-12-09T07:24:32.698Z,79.41
2023-12-09T07:27:01.036Z,79.39
2023-12-09T07:29:30.934Z,79.04
2023-12-09T07:32:00.603Z,78.88
2023-12-09T07:34:28.859Z,78.79
2023-12-09T07:36:57.491Z,78.86
2023-12-09T07:39:25.307Z,79.01
2023-12-09T07:41:53.965Z,78.38
2023-12-09T07:44:21.983Z,78.23
2023-12-09T07:46:50.284Z,78.18
2023-12-09T07:49:18.342Z,78.06
2023-12-09T07:51:46.396Z,78.17
2023-12-09T07:54:15.061Z,78.17
2023-12-09T07:56:43.000Z,77.86
2023-12-09T07:59:11.450Z,77.87
2023-12-09T08:01:39.877Z,78.03
2023-12-09T08:04:08.335Z,77.98
2023-12-09T08:06:36.760Z,77.88
2023-12-09T08:09:05.821Z,78.02
2023-12-09T08:11:33.722Z,78.11
2023-12-09T08:14:02.171Z,78.21
2023-12-09T08:16:30.235Z,78.28
2023-12-09T08:18:58.462Z,78.29
2023-12-09T08:21:26.864Z,78.28
2023-12-09T08:23:55.816Z,78.31
2023-12-09T08:26:24.387Z,78.31
2023-12-09T08:28:52.383Z,78.29
2023-12-09T08:31:20.287Z,78.07
2023-12-09T08:33:48.867Z,77.91
2023-12-09T08:36:17.043Z,77.89
2023-12-09T08:38:45.044Z,77.52
2023-12-09T08:41:13.194Z,76.72
2023-12-09T08:43:41.098Z,76.48
2023-12-09T08:46:08.982Z,76.09
2023-12-09T08:48:37.371Z,75.94
2023-12-09T08:51:05.821Z,75.64
2023-12-09T08:53:34.417Z,75.45
2023-12-09T08:56:02.323Z,75.10
2023-12-09T08:58:30.418Z,74.86
2023-12-09T09:00:58.374Z,74.70
2023-12-09T09:03:27.237Z,74.77
2023-12-09T09:05:55.479Z,74.60
2023-12-09T09:08:23.469Z,74.20
2023-12-09T09:10:51.730Z,73.95
2023-12-09T09:13:20.411Z,74.01
2023-12-09T09:15:48.420Z,74.02
2023-12-09T09:18:16.503Z,73.50
2023-12-09T09:20:44.634Z,73.27
2023-12-09T09:23:14.050Z,72.45
2023-12-09T09:25:42.480Z,72.38
2023-12-09T09:28:10.460Z,72.28
2023-12-09T09:30:38.379Z,71.98
2023-12-09T09:33:07.993Z,72.26
2023-12-09T09:35:36.098Z,72.31
2023-12-09T09:38:04.060Z,72.32
2023-12-09T09:40:31.891Z,72.38
2023-12-09T09:43:08.858Z,71.95
2023-12-09T09:45:38.030Z,72.01
2023-12-09T09:48:07.509Z,72.17
2023-12-09T09:50:42.752Z,71.47
2023-12-09T09:53:13.898Z,70.93
2023-12-09T09:55:43.308Z,70.15
2023-12-09T09:58:14.550Z,70.29
2023-12-09T10:00:43.210Z,70.24
2023-12-09T10:03:11.558Z,69.77
2023-12-09T10:05:39.920Z,69.80
2023-12-09T10:08:07.912Z,70.16
2023-12-09T10:10:36.588Z,69.81
2023-12-09T10:13:05.016Z,69.42
2023-12-09T10:15:33.762Z,69.14
2023-12-09T10:18:05.020Z,68.42
2023-12-09T10:20:36.320Z,67.39
2023-12-09T10:23:04.576Z,67.40
2023-12-09T10:25:32.584Z,67.68
2023-12-09T10:28:00.718Z,67.52
2023-12-09T10:30:29.108Z,67.77
2023-12-09T10:32:57.854Z,67.81
2023-12-09T10:35:26.022Z,67.85
2023-12-09T10:37:55.348Z,67.94
2023-12-09T10:40:26.032Z,67.59
2023-12-09T10:42:57.619Z,67.31
2023-12-09T10:45:25.898Z,66.63
2023-12-09T10:47:55.077Z,65.74
2023-12-09T10:50:24.103Z,65.80
2023-12-09T10:52:52.090Z,65.48
2023-12-09T10:55:20.822Z,65.50
2023-12-09T10:57:51.355Z,65.77
2023-12-09T11:00:20.242Z,65.44
2023-12-09T11:02:48.457Z,65.30
2023-12-09T11:05:18.374Z,64.82
2023-12-09T11:07:50.397Z,64.82
2023-12-09T11:10:20.298Z,65.12
2023-12-09T11:12:49.046Z,65.22
2023-12-09T11:15:17.094Z,65.22
2023-12-09T11:17:46.406Z,64.73
2023-12-09T11:20:18.023Z,64.83
2023-12-09T11:22:48.370Z,65.22
2023-12-09T11:25:26.560Z,64.89
2023-12-09T11:27:55.395Z,65.16
2023-12-09T11:30:37.988Z,65.15
2023-12-09T11:33:06.580Z,65.32
2023-12-09T11:35:38.948Z,65.45
2023-12-09T11:38:09.160Z,65.51
2023-12-09T11:40:37.760Z,65.47
2023-12-09T11:43:07.806Z,65.56
2023-12-09T11:45:38.511Z,65.51
2023-12-09T11:48:06.905Z,65.54
2023-12-09T11:50:35.609Z,65.75
2023-12-09T11:53:03.873Z,65.75
2023-12-09T11:55:32.365Z,65.76
2023-12-09T11:58:00.399Z,66.02
2023-12-09T12:00:28.497Z,66.06
2023-12-09T12:02:56.739Z,66.77
2023-12-09T12:05:24.728Z,67.24
2023-12-09T12:07:53.985Z,67.36
2023-12-09T12:10:23.612Z,67.12
2023-12-09T12:12:51.839Z,66.63
2023-12-09T12:15:20.382Z,66.45
2023-12-09T12:17:50.056Z,66.52
2023-12-09T12:20:18.473Z,66.53
2023-12-09T12:22:46.888Z,66.43
2023-12-09T12:25:15.044Z,66.26
2023-12-09T12:27:47.876Z,66.13
2023-12-09T12:30:16.460Z,66.12
2023-12-09T12:32:56.640Z,66.17
2023-12-09T12:35:26.474Z,66.15
2023-12-09T12:37:58.337Z,66.31
2023-12-09T12:40:27.929Z,66.25
2023-12-09T12:42:56.428Z,66.18
2023-12-09T12:45:28.604Z,66.44
2023-12-09T12:47:57.807Z,66.35
2023-12-09T12:50:26.030Z,66.04
2023-12-09T12:52:54.436Z,66.01
2023-12-09T12:55:23.353Z,66.02
2023-12-09T12:57:52.476Z,66.03
2023-12-09T13:00:21.794Z,66.13
2023-12-09T13:02:49.886Z,68.81
2023-12-09T13:05:18.014Z,68.07
2023-12-09T13:07:46.208Z,67.25
2023-12-09T13:10:14.294Z,66.91
2023-12-09T13:12:43.112Z,66.23
2023-12-09T13:15:11.932Z,66.31
2023-12-09T13:17:40.664Z,66.29
2023-12-09T13:20:11.137Z,66.51
2023-12-09T13:22:40.223Z,66.52
2023-12-09T13:25:09.872Z,66.59
2023-12-09T13:27:38.878Z,66.46
2023-12-09T13:30:08.465Z,66.38
2023-12-09T13:32:37.588Z,66.35
2023-12-09T13:35:08.051Z,66.47
2023-12-09T13:37:38.091Z,66.58
2023-12-09T13:40:10.917Z,66.47
2023-12-09T13:42:39.497Z,66.24
2023-12-09T13:45:08.478Z,66.20
2023-12-09T13:47:37.159Z,66.42
2023-12-09T13:50:06.720Z,66.31
2023-12-09T13:52:35.611Z,66.22
2023-12-09T13:55:04.922Z,66.43
2023-12-09T13:57:33.983Z,66.42
2023-12-09T14:00:09.311Z,66.24
2023-12-09T14:02:41.062Z,66.23
2023-12-09T14:05:11.738Z,66.17
2023-12-09T14:07:41.783Z,66.31
2023-12-09T14:10:10.470Z,66.17
2023-12-09T14:12:38.932Z,66.40
2023-12-09T14:15:08.783Z,66.35
2023-12-09T14:17:37.980Z,66.39
2023-12-09T14:20:07.530Z,66.43
2023-12-09T14:22:35.955Z,66.54
2023-12-09T14:25:05.257Z,66.39
2023-12-09T14:27:33.638Z,66.35
2023-12-09T14:30:01.889Z,66.15
2023-12-09T14:32:30.071Z,66.05
2023-12-09T14:34:58.660Z,66.29
2023-12-09T14:37:26.876Z,66.22
2023-12-09T14:39:55.003Z,66.26
2023-12-09T14:42:23.167Z,66.37
2023-12-09T14:44:51.633Z,66.39
2023-12-09T14:47:20.187Z,66.25
2023-12-09T14:49:49.530Z,66.14
2023-12-09T14:52:17.968Z,66.08
2023-12-09T14:54:46.290Z,66.21
2023-12-09T14:57:14.917Z,66.33
2023-12-09T14:59:43.204Z,66.16
2023-12-09T15:02:11.307Z,66.22
2023-12-09T15:04:39.497Z,66.27
2023-12-09T15:07:08.290Z,66.29
2023-12-09T15:09:37.153Z,66.46
2023-12-09T15:12:05.682Z,66.52
2023-12-09T15:14:33.663Z,66.43
2023-12-09T15:17:01.943Z,66.61
2023-12-09T15:19:30.001Z,66.84
2023-12-09T15:21:58.596Z,66.81
2023-12-09T15:24:26.578Z,66.80
2023-12-09T15:26:54.589Z,66.74
2023-12-09T15:29:22.718Z,66.80
2023-12-09T15:31:50.639Z,66.88
2023-12-09T15:34:19.154Z,66.89
2023-12-09T15:36:47.916Z,66.93
2023-12-09T15:39:17.637Z,66.81
2023-12-09T15:41:45.941Z,66.76
2023-12-09T15:44:13.898Z,66.68
2023-12-09T15:46:41.949Z,66.76
2023-12-09T15:49:10.250Z,66.85
2023-12-09T15:51:38.385Z,66.78
2023-12-09T15:54:09.280Z,66.93
2023-12-09T15:56:37.444Z,66.96
2023-12-09T15:59:05.376Z,67.18
2023-12-09T16:01:33.448Z,67.14
2023-12-09T16:04:01.525Z,67.11
2023-12-09T16:06:29.668Z,67.15
2023-12-09T16:08:57.903Z,67.08
2023-12-09T16:11:25.924Z,67.29
2023-12-09T16:13:54.094Z,67.31
2023-12-09T16:16:23.144Z,67.14
2023-12-09T16:18:51.529Z,67.03
2023-12-09T16:21:19.873Z,66.99
2023-12-09T16:23:47.848Z,67.09
2023-12-09T16:26:16.371Z,67.10
2023-12-09T16:28:46.785Z,66.96
2023-12-09T16:31:16.875Z,67.11
2023-12-09T16:33:45.019Z,67.13
2023-12-09T16:36:13.610Z,68.82
2023-12-09T16:38:41.715Z,74.08
2023-12-09T16:41:09.740Z,73.21
2023-12-09T16:43:37.888Z,71.54
2023-12-09T16:46:06.164Z,69.98
2023-12-09T16:48:34.756Z,69.01
2023-12-09T16:51:02.953Z,68.52
2023-12-09T16:53:31.666Z,68.11
2023-12-09T16:56:00.928Z,67.81
2023-12-09T16:58:29.012Z,67.76
2023-12-09T17:00:57.241Z,67.61
2023-12-09T17:03:25.619Z,67.78
2023-12-09T17:05:53.723Z,67.87
2023-12-09T17:08:21.708Z,67.72
2023-12-09T17:10:49.872Z,67.56
2023-12-09T17:13:17.884Z,67.38
2023-12-09T17:15:45.851Z,67.47
2023-12-09T17:18:14.175Z,67.57
2023-12-09T17:20:42.385Z,67.81
2023-12-09T17:23:10.746Z,67.90
2023-12-09T17:25:38.641Z,68.02
2023-12-09T17:28:06.734Z,68.05
2023-12-09T17:30:35.472Z,68.27
2023-12-09T17:33:04.613Z,68.31
2023-12-09T17:35:32.758Z,68.48
2023-12-09T17:38:00.951Z,68.53
2023-12-09T17:40:29.082Z,68.70
2023-12-09T17:42:57.503Z,68.78
2023-12-09T17:45:25.959Z,69.03
2023-12-09T17:47:54.301Z,69.01
2023-12-09T17:50:23.001Z,69.17
2023-12-09T17:52:52.433Z,69.27
2023-12-09T17:55:20.581Z,69.42
2023-12-09T17:57:49.591Z,69.42
2023-12-09T18:00:17.830Z,69.46
2023-12-09T18:02:46.044Z,69.56
2023-12-09T18:05:14.298Z,69.71
2023-12-09T18:07:42.651Z,69.93
2023-12-09T18:10:10.838Z,70.21
2023-12-09T18:12:38.965Z,70.14
2023-12-09T18:15:08.549Z,70.18
2023-12-09T18:17:36.879Z,70.12
2023-12-09T18:20:06.360Z,70.29
2023-12-09T18:22:34.613Z,70.22
2023-12-09T18:25:02.677Z,70.29
2023-12-09T18:27:32.739Z,70.32
2023-12-09T18:30:01.091Z,70.21
2023-12-09T18:32:34.523Z,70.45
2023-12-09T18:35:09.317Z,70.42
2023-12-09T18:37:38.049Z,70.39
2023-12-09T18:40:07.520Z,70.43
2023-12-09T18:42:35.973Z,70.56
2023-12-09T18:45:05.761Z,70.56
2023-12-09T18:47:36.198Z,70.71
2023-12-09T18:50:04.757Z,70.74
2023-12-09T18:52:33.697Z,70.74
2023-12-09T18:55:02.355Z,70.72
2023-12-09T18:57:31.168Z,70.73
2023-12-09T19:00:05.845Z,70.75
2023-12-09T19:02:34.663Z,70.84
2023-12-09T19:05:03.365Z,71.02
2023-12-09T19:07:31.799Z,71.11
2023-12-09T19:10:04.897Z,71.09
2023-12-09T19:12:34.722Z,71.14
2023-12-09T19:15:03.867Z,71.18
2023-12-09T19:17:32.378Z,71.19
2023-12-09T19:20:00.783Z,71.25
2023-12-09T19:22:29.474Z,71.29
2023-12-09T19:24:57.757Z,71.39
2023-12-09T19:27:26.116Z,71.34
2023-12-09T19:29:54.893Z,71.52
2023-12-09T19:32:23.132Z,71.53
2023-12-09T19:34:51.551Z,71.39
2023-12-09T19:37:19.661Z,71.29
2023-12-09T19:39:50.193Z,71.33
2023-12-09T19:42:19.602Z,71.44
2023-12-09T19:44:47.955Z,71.51
2023-12-09T19:47:15.970Z,71.53
2023-12-09T19:49:44.438Z,71.58
2023-12-09T19:52:15.337Z,71.73
2023-12-09T19:54:43.622Z,71.84
2023-12-09T19:57:11.527Z,71.89
2023-12-09T19:59:43.258Z,71.99
2023-12-09T20:02:11.209Z,72.03
2023-12-09T20:04:39.249Z,71.91
2023-12-09T20:07:08.448Z,71.99
2023-12-09T20:09:36.625Z,71.95
2023-12-09T20:12:05.760Z,71.97
2023-12-09T20:14:36.746Z,71.95
2023-12-09T20:17:07.074Z,72.04
2023-12-09T20:19:39.052Z,72.02
2023-12-09T20:22:10.771Z,71.82
2023-12-09T20:24:39.497Z,71.79
2023-12-09T20:27:07.975Z,71.89
2023-12-09T20:29:40.130Z,71.92
2023-12-09T20:32:08.874Z,71.99
2023-12-09T20:34:37.095Z,72.02
2023-12-09T20:37:05.941Z,72.08
2023-12-09T20:39:34.425Z,72.16
2023-12-09T20:42:02.621Z,72.32
2023-12-09T20:44:30.969Z,72.36
2023-12-09T20:47:00.046Z,72.27
2023-12-09T20:49:28.523Z,72.30
2023-12-09T20:51:56.944Z,72.08
2023-12-09T20:54:29.392Z,72.00
2023-12-09T20:56:57.662Z,72.02
2023-12-09T20:59:25.970Z,72.16
2023-12-09T21:01:55.884Z,72.06
2023-12-09T21:04:26.961Z,71.89
2023-12-09T21:06:55.090Z,71.96
2023-12-09T21:09:23.499Z,72.01
2023-12-09T21:11:51.630Z,72.18
2023-12-09T21:14:20.819Z,72.21
2023-12-09T21:16:48.793Z,72.37
2023-12-09T21:19:18.621Z,72.15
2023-12-09T21:21:46.760Z,72.33
2023-12-09T21:24:14.932Z,72.32
2023-12-09T21:26:43.324Z,72.31
2023-12-09T21:29:12.143Z,72.27
2023-12-09T21:31:40.149Z,72.32
2023-12-09T21:34:08.388Z,72.35
2023-12-09T21:36:36.392Z,72.50
2023-12-09T21:39:05.037Z,72.69
2023-12-09T21:41:33.246Z,72.69
2023-12-09T21:44:01.457Z,72.89
2023-12-09T21:46:29.852Z,72.96
2023-12-09T21:48:59.660Z,73.00
2023-12-09T21:51:29.423Z,73.04
2023-12-09T21:53:58.161Z,72.98
2023-12-09T21:56:29.514Z,73.10
2023-12-09T21:58:57.725Z,73.27
2023-12-09T22:01:26.425Z,73.29
2023-12-09T22:03:54.417Z,73.33
2023-12-09T22:06:22.559Z,73.44
2023-12-09T22:08:50.661Z,73.69
2023-12-09T22:11:18.860Z,73.78
2023-12-09T22:13:47.396Z,73.89
2023-12-09T22:16:20.788Z,74.01
2023-12-09T22:18:49.786Z,74.00
2023-12-09T22:21:18.218Z,74.12
2023-12-09T22:23:46.428Z,74.21
2023-12-09T22:26:14.659Z,74.21
2023-12-09T22:28:43.179Z,74.33
2023-12-09T22:31:11.786Z,74.45
2023-12-09T22:33:41.578Z,74.54
2023-12-09T22:36:10.418Z,74.84
2023-12-09T22:38:38.629Z,74.93
2023-12-09T22:41:06.892Z,74.91
2023-12-09T22:43:35.026Z,75.17
2023-12-09T22:46:03.257Z,75.27
2023-12-09T22:48:31.496Z,75.15
2023-12-09T22:50:59.682Z,75.13
2023-12-09T22:53:28.215Z,75.17
2023-12-09T22:56:12.057Z,75.17
2023-12-09T22:58:42.315Z,75.24
2023-12-09T23:01:11.428Z,75.32
2023-12-09T23:03:39.918Z,75.25
2023-12-09T23:06:09.394Z,75.38
2023-12-09T23:08:40.369Z,75.22
2023-12-09T23:11:08.834Z,75.16
2023-12-09T23:13:36.884Z,75.24
2023-12-09T23:16:05.708Z,75.36
2023-12-09T23:18:33.886Z,75.32
2023-12-09T23:21:03.176Z,75.25
2023-12-09T23:23:31.454Z,75.26
2023-12-09T23:25:59.659Z,75.23
2023-12-09T23:28:28.527Z,75.17
2023-12-09T23:30:56.905Z,75.17
2023-12-09T23:33:25.038Z,75.13
2023-12-09T23:35:53.466Z,75.11
2023-12-09T23:38:22.303Z,74.87
2023-12-09T23:40:51.650Z,74.91
2023-12-09T23:43:19.849Z,74.99
2023-12-09T23:45:48.030Z,75.20
2023-12-09T23:48:18.665Z,75.07
2023-12-09T23:50:47.609Z,74.91
2023-12-09T23:53:18.179Z,75.01
2023-12-09T23:55:46.494Z,74.89
2023-12-09T23:58:16.068Z,74.96
